Time;durP1;ratioP1;P1;durP2;ratioP2;P2;SDS_P1;SDS_P2;PMS_P1;PMS_P2;Temp;Humidity;BMP_temperature;BMP_pressure;BME280_temperature;BME280_humidity;BME280_pressure;Samples;Min_cycle;Max_cycle;Signal;HPM_P1;HPM_P2
2023/11/08 14:30:03;;;;;;;1.70;1.60;;;10.80;99.90;;;;;;5133663;27;20337;-62
2023/11/08 14:32:30;;;;;;;1.80;1.60;;;;;;;;;;5111399;28;20809;-62
2023/11/08 14:34:57;;;;;;;2.20;1.70;;;11.70;99.90;;;;;;5107207;27;20263;-61
2023/11/08 14:37:25;;;;;;;1.70;1.60;;;11.40;99.90;;;;;;5107641;28;20198;-62
2023/11/08 14:39:52;;;;;;;2.43;1.53;;;11.20;99.90;;;;;;5113564;28;20194;-62
2023/11/08 14:42:22;;;;;;;1.77;1.67;;;;;;;;;;5116693;27;20202;-63
2023/11/08 14:44:49;;;;;;;3.50;1.87;;;11.40;99.90;;;;;;5114695;28;20202;-62
2023/11/08 14:47:20;;;;;;;2.40;1.50;;;11.60;99.90;;;;;;5109308;28;20227;-62
2023/11/08 14:49:49;;;;;;;1.83;1.67;;;10.90;99.90;;;;;;5110858;28;20769;-60
2023/11/08 14:52:17;;;;;;;1.17;1.17;;;11.70;99.90;;;;;;5109478;28;20195;-60
2023/11/08 14:54:45;;;;;;;2.67;1.50;;;11.80;99.90;;;;;;5114516;28;20194;-61
2023/11/08 14:57:13;;;;;;;1.50;1.40;;;11.90;99.90;;;;;;5116129;27;20200;-61
2023/11/08 14:59:43;;;;;;;1.73;1.60;;;11.90;99.90;;;;;;5118453;28;20215;-61
2023/11/08 15:02:11;;;;;;;1.77;1.67;;;11.90;99.90;;;;;;5114679;27;20654;-62
2023/11/08 15:04:39;;;;;;;1.67;1.57;;;11.90;99.90;;;;;;5118371;28;20673;-61
2023/11/08 15:07:07;;;;;;;1.50;1.40;;;11.90;99.90;;;;;;5113289;28;20224;-62
2023/11/08 15:09:34;;;;;;;3.60;1.97;;;12.00;99.90;;;;;;5115554;27;20296;-61
2023/11/08 15:12:02;;;;;;;2.90;2.10;;;12.00;99.90;;;;;;5114352;27;20745;-61
2023/11/08 15:14:29;;;;;;;2.23;1.87;;;12.00;99.90;;;;;;5121419;27;20246;-61
2023/11/08 15:16:56;;;;;;;1.60;1.50;;;12.10;99.90;;;;;;5117240;28;20201;-62
2023/11/08 15:19:24;;;;;;;2.50;1.80;;;11.90;99.90;;;;;;5117708;27;20741;-61
2023/11/08 15:21:53;;;;;;;1.57;1.47;;;12.00;99.90;;;;;;5111907;28;20233;-62
2023/11/08 15:24:20;;;;;;;2.30;1.63;;;12.00;99.90;;;;;;5123396;28;20581;-62
2023/11/08 15:26:49;;;;;;;2.07;1.90;;;12.00;99.90;;;;;;5117068;27;20218;-61
2023/11/08 15:29:17;;;;;;;1.63;1.53;;;12.00;99.90;;;;;;5108733;28;20312;-61
2023/11/08 15:31:44;;;;;;;2.00;1.90;;;12.00;99.90;;;;;;5119874;28;20214;-62
2023/11/08 15:34:12;;;;;;;2.10;1.73;;;12.00;99.90;;;;;;5118807;28;20574;-60
2023/11/08 15:36:39;;;;;;;2.03;1.80;;;12.00;99.90;;;;;;5114109;28;20686;-61
2023/11/08 15:39:08;;;;;;;1.50;1.37;;;12.00;99.90;;;;;;5111474;28;20197;-61
2023/11/08 15:41:35;;;;;;;2.13;1.60;;;12.00;99.90;;;;;;5097958;28;20189;-61
2023/11/08 15:44:02;;;;;;;2.30;1.50;;;12.00;99.90;;;;;;5095148;28;20717;-61
2023/11/08 15:46:30;;;;;;;5.53;2.87;;;12.00;99.90;;;;;;5093904;28;20285;-62
2023/11/08 15:48:59;;;;;;;3.47;2.10;;;12.00;99.90;;;;;;5096278;28;20243;-62
2023/11/08 15:51:26;;;;;;;3.07;2.50;;;12.00;99.90;;;;;;5094708;28;20278;-61
2023/11/08 15:53:55;;;;;;;3.40;2.10;;;12.00;99.90;;;;;;5092664;28;20205;-62
2023/11/08 15:56:24;;;;;;;3.33;1.87;;;12.00;99.90;;;;;;5093306;28;20204;-62
2023/11/08 15:58:52;;;;;;;2.60;1.83;;;12.00;99.90;;;;;;5096325;28;20302;-61
2023/11/08 16:01:19;;;;;;;2.80;1.93;;;12.00;99.90;;;;;;5097075;28;20549;-61
2023/11/08 16:03:47;;;;;;;1.53;1.43;;;11.90;99.90;;;;;;5103838;28;20198;-61
2023/11/08 16:06:18;;;;;;;4.00;1.90;;;11.90;99.90;;;;;;5107801;28;20713;-62
2023/11/08 16:08:45;;;;;;;3.73;1.70;;;12.00;99.90;;;;;;5094898;28;20227;-62
2023/11/08 16:11:12;;;;;;;1.50;1.40;;;11.90;99.90;;;;;;5095303;28;20308;-62
2023/11/08 16:13:41;;;;;;;1.73;1.63;;;12.00;99.90;;;;;;5097384;28;20200;-62
2023/11/08 16:16:09;;;;;;;1.70;1.60;;;12.00;99.90;;;;;;5098734;28;20197;-62
2023/11/08 16:18:36;;;;;;;1.67;1.57;;;12.00;99.90;;;;;;5095858;28;20203;-62
2023/11/08 16:21:08;;;;;;;2.33;1.60;;;12.00;99.90;;;;;;5104306;28;20197;-61
2023/11/08 16:23:35;;;;;;;1.70;1.53;;;12.00;99.90;;;;;;5110922;28;20645;-61
2023/11/08 16:26:03;;;;;;;2.33;1.70;;;12.00;99.90;;;;;;5105973;28;20195;-62
2023/11/08 16:28:31;;;;;;;1.80;1.70;;;12.00;99.90;;;;;;5093174;28;20429;-61
2023/11/08 16:31:00;;;;;;;1.80;1.70;;;12.00;99.90;;;;;;5097905;28;20278;-62
2023/11/08 16:33:27;;;;;;;3.57;2.00;;;11.90;99.90;;;;;;5100204;28;20611;-60
2023/11/08 16:35:55;;;;;;;3.00;1.70;;;11.90;99.90;;;;;;5098289;28;20212;-61
2023/11/08 16:38:23;;;;;;;2.23;2.03;;;11.90;99.90;;;;;;5098905;28;20684;-60
2023/11/08 16:40:50;;;;;;;2.30;2.10;;;11.90;99.90;;;;;;5099873;28;20201;-62
2023/11/08 16:43:17;;;;;;;2.23;2.10;;;11.90;99.90;;;;;;5095696;28;20743;-62
2023/11/08 16:45:45;;;;;;;2.30;1.90;;;11.90;99.90;;;;;;5105073;28;20187;-62
2023/11/08 16:48:14;;;;;;;2.33;2.13;;;11.90;99.90;;;;;;5099830;28;20198;-62
2023/11/08 16:50:41;;;;;;;4.03;2.67;;;11.90;99.90;;;;;;5096130;28;20258;-62
2023/11/08 16:53:09;;;;;;;3.50;2.00;;;11.90;99.90;;;;;;5096394;28;20558;-62
2023/11/08 16:55:38;;;;;;;2.63;2.40;;;11.90;99.90;;;;;;5094844;28;20617;-62
2023/11/08 16:58:07;;;;;;;3.20;2.20;;;11.90;99.90;;;;;;5094804;28;20212;-61
2023/11/08 17:00:35;;;;;;;4.83;2.10;;;11.90;99.90;;;;;;5099556;28;20193;-62
2023/11/08 17:03:03;;;;;;;3.07;2.60;;;11.90;99.90;;;;;;5104247;28;20228;-62
2023/11/08 17:05:35;;;;;;;3.47;2.40;;;11.90;99.90;;;;;;5108852;28;20852;-61
2023/11/08 17:08:04;;;;;;;3.77;2.90;;;11.90;99.90;;;;;;5095350;28;20710;-62
2023/11/08 17:10:32;;;;;;;7.03;2.87;;;11.90;99.90;;;;;;5099443;28;20302;-62
2023/11/08 17:12:59;;;;;;;14.33;3.40;;;11.90;99.90;;;;;;5103631;28;20800;-61
2023/11/08 17:15:26;;;;;;;6.47;2.70;;;11.90;99.90;;;;;;5101756;28;20254;-62
2023/11/08 17:17:53;;;;;;;4.53;2.67;;;11.90;99.90;;;;;;5100514;28;20193;-61
2023/11/08 17:20:21;;;;;;;2.40;2.20;;;11.90;99.90;;;;;;5101525;28;20192;-61
2023/11/08 17:22:51;;;;;;;2.17;1.97;;;11.90;99.90;;;;;;5101828;28;20202;-61
2023/11/08 17:25:18;;;;;;;2.30;1.93;;;11.90;99.90;;;;;;5110679;28;20301;-61
2023/11/08 17:27:45;;;;;;;2.03;1.90;;;11.90;99.90;;;;;;5097030;28;20566;-61
2023/11/08 17:30:15;;;;;;;1.80;1.70;;;11.90;99.90;;;;;;5094394;28;20217;-60
2023/11/08 17:32:42;;;;;;;1.53;1.43;;;12.00;99.90;;;;;;5100706;28;20570;-62
2023/11/08 17:35:09;;;;;;;1.60;1.50;;;12.00;99.90;;;;;;5096738;28;20670;-62
2023/11/08 17:37:37;;;;;;;1.70;1.60;;;12.00;99.90;;;;;;5094829;28;20410;-61
2023/11/08 17:40:06;;;;;;;2.00;1.67;;;12.00;99.90;;;;;;5096481;28;20250;-61
2023/11/08 17:42:33;;;;;;;2.40;2.20;;;12.00;99.90;;;;;;5099286;28;20268;-61
2023/11/08 17:45:00;;;;;;;2.50;1.67;;;12.00;99.90;;;;;;5090284;28;20739;-63
2023/11/08 17:47:28;;;;;;;1.87;1.73;;;12.00;99.90;;;;;;5092713;28;20221;-63
2023/11/08 17:49:55;;;;;;;1.83;1.40;;;12.00;99.90;;;;;;5102556;28;20244;-63
2023/11/08 17:52:22;;;;;;;1.70;1.60;;;12.00;99.90;;;;;;5099247;28;20654;-63
2023/11/08 17:54:50;;;;;;;2.93;1.90;;;12.00;99.90;;;;;;5093227;28;20196;-63
2023/11/08 17:57:18;;;;;;;2.80;1.90;;;12.00;99.90;;;;;;5095740;28;20224;-64
2023/11/08 17:59:45;;;;;;;1.83;1.73;;;11.90;99.90;;;;;;5093624;28;20658;-64
2023/11/08 18:02:12;;;;;;;1.43;1.33;;;12.00;99.90;;;;;;5102863;28;20268;-64
2023/11/08 18:04:39;;;;;;;3.00;1.70;;;12.00;99.90;;;;;;5095449;28;20194;-63
2023/11/08 18:07:07;;;;;;;1.70;1.60;;;12.00;99.90;;;;;;5093445;28;20201;-63
2023/11/08 18:09:34;;;;;;;1.70;1.60;;;12.00;99.90;;;;;;5095505;28;20295;-63
2023/11/08 18:12:01;;;;;;;2.63;1.67;;;12.00;99.90;;;;;;5102743;28;20201;-63
2023/11/08 18:14:32;;;;;;;1.67;1.40;;;12.00;99.90;;;;;;5100060;28;20624;-63
2023/11/08 18:16:59;;;;;;;1.20;1.10;;;12.00;99.90;;;;;;5089277;28;20213;-63
2023/11/08 18:19:28;;;;;;;1.57;1.47;;;12.00;99.90;;;;;;5094068;28;20272;-63
2023/11/08 18:21:58;;;;;;;2.30;2.10;;;12.00;99.90;;;;;;5082554;28;20222;-63
2023/11/08 18:24:25;;;;;;;1.87;1.50;;;12.00;99.90;;;;;;5090429;28;20564;-63
2023/11/08 18:26:52;;;;;;;2.53;1.67;;;12.00;99.90;;;;;;5093836;28;20203;-63
2023/11/08 18:29:19;;;;;;;2.30;1.60;;;12.00;99.90;;;;;;5089675;28;20634;-64
2023/11/08 18:31:48;;;;;;;1.60;1.50;;;12.00;99.90;;;;;;5091671;28;20196;-64
2023/11/08 18:34:15;;;;;;;2.57;1.80;;;12.00;99.90;;;;;;5091809;28;20186;-64
2023/11/08 18:36:45;;;;;;;1.83;1.73;;;12.00;99.90;;;;;;5091446;28;20201;-63
2023/11/08 18:39:13;;;;;;;2.27;1.40;;;12.00;99.90;;;;;;5091374;28;20186;-62
2023/11/08 18:41:40;;;;;;;1.97;1.77;;;12.00;99.90;;;;;;5093364;28;20193;-62
2023/11/08 18:44:07;;;;;;;3.27;2.07;;;12.00;99.90;;;;;;5091565;28;20233;-64
2023/11/08 18:46:34;;;;;;;1.87;1.77;;;12.00;99.90;;;;;;5088496;28;20213;-63
2023/11/08 18:49:05;;;;;;;1.47;1.37;;;11.90;99.90;;;;;;5092698;28;20200;-62
2023/11/08 18:51:32;;;;;;;1.87;1.77;;;;;;;;;;5093172;28;20596;-62
2023/11/08 18:53:59;;;;;;;1.93;1.83;;;11.90;99.90;;;;;;5098080;28;20642;-62
2023/11/08 18:56:27;;;;;;;2.30;2.10;;;11.90;99.90;;;;;;5104193;28;20208;-63
2023/11/08 18:58:54;;;;;;;1.90;1.80;;;11.90;99.90;;;;;;5097033;28;22631;-63
2023/11/08 19:01:22;;;;;;;2.07;1.67;;;11.90;99.90;;;;;;5092247;28;20194;-63
2023/11/08 19:03:50;;;;;;;1.57;1.47;;;;;;;;;;5090859;28;20204;-63
2023/11/08 19:06:18;;;;;;;3.07;1.97;;;11.80;99.90;;;;;;5089993;28;20684;-63
2023/11/08 19:08:46;;;;;;;1.67;1.57;;;11.90;99.90;;;;;;5092442;28;20205;-63
2023/11/08 19:11:16;;;;;;;2.93;1.50;;;11.90;99.90;;;;;;5090770;28;20209;-63
2023/11/08 19:13:44;;;;;;;1.40;1.30;;;11.90;99.90;;;;;;5091518;28;20198;-63
2023/11/08 19:16:11;;;;;;;1.90;1.30;;;11.80;99.90;;;;;;5093569;28;20838;-63
2023/11/08 19:18:38;;;;;;;1.57;1.33;;;11.70;99.90;;;;;;5094827;28;20309;-63
2023/11/08 19:21:06;;;;;;;3.13;1.30;;;11.80;99.90;;;;;;5095973;28;20190;-63
2023/11/08 19:23:34;;;;;;;1.30;1.20;;;11.90;99.90;;;;;;5079586;28;20204;-63
2023/11/08 19:26:01;;;;;;;1.93;1.17;;;11.80;99.90;;;;;;5094714;28;20200;-63
2023/11/08 19:28:28;;;;;;;1.50;1.20;;;11.90;99.90;;;;;;5094327;28;20226;-63
2023/11/08 19:30:58;;;;;;;1.30;1.20;;;11.80;99.90;;;;;;5091044;28;20213;-64
2023/11/08 19:33:25;;;;;;;1.40;1.30;;;11.80;99.90;;;;;;5091135;28;20585;-63
2023/11/08 19:35:56;;;;;;;2.63;1.43;;;11.80;99.90;;;;;;5092493;28;20197;-63
2023/11/08 19:38:23;;;;;;;1.50;1.40;;;11.80;99.90;;;;;;5086939;28;20906;-63
2023/11/08 19:40:54;;;;;;;1.40;1.30;;;11.80;99.90;;;;;;5093572;28;20218;-63
2023/11/08 19:43:21;;;;;;;1.53;1.43;;;11.80;99.90;;;;;;5094617;28;20582;-63
2023/11/08 19:45:48;;;;;;;1.43;1.30;;;11.80;99.90;;;;;;5094580;28;20206;-63
2023/11/08 19:48:17;;;;;;;1.10;1.10;;;11.80;99.90;;;;;;5095013;28;20197;-62
2023/11/08 19:50:45;;;;;;;2.00;1.53;;;11.70;99.90;;;;;;5090453;28;20544;-63
2023/11/08 19:53:12;;;;;;;1.63;1.30;;;11.90;99.90;;;;;;5093380;28;20203;-62
2023/11/08 19:55:42;;;;;;;1.93;1.30;;;11.80;99.90;;;;;;5095254;28;20185;-63
2023/11/08 19:58:12;;;;;;;1.70;1.20;;;12.00;99.90;;;;;;5094026;28;20212;-63
2023/11/08 20:00:39;;;;;;;1.93;1.43;;;11.80;99.90;;;;;;5094816;28;20662;-64
2023/11/08 20:03:06;;;;;;;3.10;1.50;;;11.80;99.90;;;;;;5094199;28;20197;-63
2023/11/08 20:05:34;;;;;;;1.20;1.20;;;11.80;99.90;;;;;;5093892;28;20207;-62
2023/11/08 20:08:02;;;;;;;1.07;1.07;;;11.80;99.90;;;;;;5094243;28;20190;-63
2023/11/08 20:10:29;;;;;;;1.50;1.40;;;11.80;99.90;;;;;;5086230;28;20233;-63
2023/11/08 20:12:57;;;;;;;1.33;1.23;;;11.80;99.90;;;;;;5092455;28;20227;-63
2023/11/08 20:15:26;;;;;;;1.70;1.60;;;11.80;99.90;;;;;;5091278;28;20202;-63
2023/11/08 20:17:53;;;;;;;1.33;1.20;;;11.80;99.90;;;;;;5088334;28;20473;-63
2023/11/08 20:20:20;;;;;;;1.10;1.10;;;11.80;99.90;;;;;;5086375;28;20188;-63
2023/11/08 20:22:51;;;;;;;1.30;1.20;;;11.60;99.90;;;;;;5094754;28;20224;-63
2023/11/08 20:25:19;;;;;;;1.00;1.00;;;11.80;99.90;;;;;;5093738;28;20486;-63
2023/11/08 20:27:46;;;;;;;0.97;0.97;;;11.90;99.90;;;;;;5092390;28;20203;-62
2023/11/08 20:30:16;;;;;;;0.80;0.80;;;11.80;99.90;;;;;;5092319;28;20200;-62
2023/11/08 20:32:44;;;;;;;1.27;1.10;;;11.90;99.90;;;;;;5093844;28;20199;-64
2023/11/08 20:35:12;;;;;;;1.00;1.00;;;11.80;99.90;;;;;;5092998;28;20680;-63
2023/11/08 20:37:40;;;;;;;1.30;1.20;;;11.80;99.90;;;;;;5087604;28;20193;-63
2023/11/08 20:40:13;;;;;;;1.27;1.17;;;11.60;99.90;;;;;;5093631;28;20207;-62
2023/11/08 20:42:40;;;;;;;1.47;1.37;;;11.70;99.90;;;;;;5094233;28;20275;-64
2023/11/08 20:45:09;;;;;;;1.37;1.27;;;11.70;99.90;;;;;;5092491;28;20244;-63
2023/11/08 20:47:36;;;;;;;1.60;1.50;;;11.60;99.90;;;;;;5093896;28;20204;-63
2023/11/08 20:50:06;;;;;;;1.57;1.47;;;11.60;99.90;;;;;;5091947;28;20209;-62
2023/11/08 20:52:36;;;;;;;1.73;1.63;;;11.60;99.90;;;;;;5090093;28;20995;-63
2023/11/08 20:55:04;;;;;;;1.40;1.30;;;11.60;99.90;;;;;;5100640;28;20207;-63
2023/11/08 20:57:32;;;;;;;2.47;1.97;;;11.60;99.90;;;;;;5096489;28;20248;-64
2023/11/08 20:59:59;;;;;;;1.40;1.30;;;11.60;99.90;;;;;;5102147;28;20244;-64
2023/11/08 21:02:27;;;;;;;2.63;1.90;;;9.70;99.90;;;;;;5093872;28;20196;-64
2023/11/08 21:04:57;;;;;;;3.40;1.60;;;11.60;99.90;;;;;;5095209;28;20213;-63
2023/11/08 21:07:26;;;;;;;2.93;1.97;;;11.60;99.90;;;;;;5102343;28;20274;-63
2023/11/08 21:09:55;;;;;;;2.23;1.70;;;11.60;99.90;;;;;;5100895;28;20192;-63
2023/11/08 21:12:22;;;;;;;2.00;1.80;;;11.60;99.90;;;;;;5093081;28;20193;-63
2023/11/08 21:14:49;;;;;;;2.47;2.00;;;11.60;99.90;;;;;;5090016;28;20722;-63
2023/11/08 21:17:17;;;;;;;2.63;2.07;;;11.60;99.90;;;;;;5092809;28;20812;-63
2023/11/08 21:19:45;;;;;;;3.47;2.40;;;11.60;99.90;;;;;;5091796;28;20641;-64
2023/11/08 21:22:12;;;;;;;2.60;1.90;;;11.50;99.90;;;;;;5097314;28;20206;-63
2023/11/08 21:24:41;;;;;;;3.97;2.30;;;11.50;99.90;;;;;;5088573;28;20230;-63
2023/11/08 21:27:08;;;;;;;5.60;2.53;;;11.50;99.90;;;;;;5093392;28;20212;-64
2023/11/08 21:29:35;;;;;;;5.43;2.80;;;11.40;99.90;;;;;;5091517;28;20702;-63
2023/11/08 21:32:02;;;;;;;3.50;2.43;;;11.70;99.90;;;;;;5090583;28;20713;-63
2023/11/08 21:34:29;;;;;;;3.67;2.50;;;11.60;99.90;;;;;;5091363;28;20838;-63
2023/11/08 21:36:56;;;;;;;2.63;2.20;;;11.60;99.90;;;;;;5096263;28;20614;-64
2023/11/08 21:39:24;;;;;;;3.07;2.30;;;;;;;;;;5105664;28;20285;-63
2023/11/08 21:41:52;;;;;;;4.60;2.00;;;11.60;99.90;;;;;;5094650;28;20202;-63
2023/11/08 21:44:20;;;;;;;2.93;2.00;;;11.70;99.90;;;;;;5090689;28;20242;-63
2023/11/08 21:46:47;;;;;;;2.10;1.83;;;11.70;99.90;;;;;;5091451;28;20217;-62
2023/11/08 21:49:14;;;;;;;2.30;1.67;;;11.60;99.90;;;;;;5095258;28;20205;-62
2023/11/08 21:51:41;;;;;;;1.77;1.60;;;11.70;99.90;;;;;;5107732;28;20582;-64
2023/11/08 21:54:10;;;;;;;1.70;1.60;;;11.70;99.90;;;;;;5102899;28;20679;-63
2023/11/08 21:56:37;;;;;;;2.30;1.70;;;11.60;99.90;;;;;;5098120;28;20192;-64
2023/11/08 21:59:07;;;;;;;1.80;1.50;;;11.40;99.90;;;;;;5097483;28;20715;-63
2023/11/08 22:01:34;;;;;;;1.97;1.83;;;11.60;99.90;;;;;;5102574;28;20189;-63
2023/11/08 22:04:01;;;;;;;1.73;1.63;;;11.60;99.90;;;;;;5099827;28;20210;-64
2023/11/08 22:06:29;;;;;;;1.50;1.40;;;11.30;99.90;;;;;;5099731;28;20188;-63
2023/11/08 22:08:56;;;;;;;1.63;1.50;;;11.60;99.90;;;;;;5104939;28;20200;-63
2023/11/08 22:11:23;;;;;;;1.53;1.43;;;11.50;99.90;;;;;;5087834;28;20284;-63
2023/11/08 22:13:50;;;;;;;1.33;1.23;;;11.60;99.90;;;;;;5102189;28;20583;-63
2023/11/08 22:16:19;;;;;;;1.40;1.30;;;11.60;99.90;;;;;;5096087;28;20586;-63
2023/11/08 22:18:46;;;;;;;2.00;1.60;;;11.60;99.90;;;;;;5092714;28;20220;-63
2023/11/08 22:21:13;;;;;;;1.30;1.20;;;11.50;99.90;;;;;;5086917;28;20268;-63
2023/11/08 22:23:40;;;;;;;1.70;1.60;;;11.50;99.90;;;;;;5102405;28;20197;-63
2023/11/08 22:26:15;;;;;;;1.53;1.43;;;11.50;99.90;;;;;;5090033;28;20597;-63
2023/11/08 22:28:42;;;;;;;2.60;1.37;;;11.50;99.90;;;;;;5095805;28;20228;-63
2023/11/08 22:31:09;;;;;;;1.60;1.50;;;11.40;99.90;;;;;;5099484;28;20706;-64
2023/11/08 22:33:39;;;;;;;3.37;1.60;;;11.40;99.90;;;;;;5100479;28;20224;-63
2023/11/08 22:36:08;;;;;;;1.67;1.57;;;11.40;99.90;;;;;;5096155;28;20536;-63
2023/11/08 22:38:36;;;;;;;2.37;1.60;;;11.30;99.90;;;;;;5097631;28;20223;-63
2023/11/08 22:41:05;;;;;;;1.43;1.20;;;11.40;99.90;;;;;;5099310;28;20549;-63
2023/11/08 22:43:32;;;;;;;2.17;1.43;;;11.40;99.90;;;;;;5099803;28;20197;-64
2023/11/08 22:45:59;;;;;;;1.40;1.30;;;11.40;99.90;;;;;;5107370;28;20200;-62
2023/11/08 22:48:29;;;;;;;2.03;1.10;;;11.40;99.90;;;;;;5095829;28;20240;-64
2023/11/08 22:50:57;;;;;;;1.70;1.00;;;11.40;99.90;;;;;;5105288;28;20204;-64
2023/11/08 22:53:24;;;;;;;1.70;1.20;;;11.40;99.90;;;;;;5109466;28;20231;-63
2023/11/08 22:55:51;;;;;;;1.10;1.10;;;11.40;99.90;;;;;;5108185;28;20201;-63
2023/11/08 22:58:18;;;;;;;1.40;1.30;;;11.40;99.90;;;;;;5110231;28;20301;-62
2023/11/08 23:00:46;;;;;;;2.10;2.00;;;11.40;99.90;;;;;;5103054;28;20184;-64
2023/11/08 23:03:15;;;;;;;1.70;1.60;;;11.40;99.90;;;;;;5109199;28;20189;-64
2023/11/08 23:05:44;;;;;;;2.00;1.73;;;11.30;99.90;;;;;;5105162;28;20192;-64
2023/11/08 23:08:13;;;;;;;1.67;1.57;;;11.30;99.90;;;;;;5106077;28;20557;-63
2023/11/08 23:10:40;;;;;;;1.60;1.50;;;11.30;99.90;;;;;;5107609;28;20240;-62
2023/11/08 23:13:07;;;;;;;1.60;1.30;;;11.30;99.90;;;;;;5106067;28;20203;-63
2023/11/08 23:15:35;;;;;;;1.50;1.40;;;11.30;99.90;;;;;;5101860;28;20246;-63
2023/11/08 23:18:02;;;;;;;1.40;1.30;;;11.20;99.90;;;;;;5110964;28;20200;-62
2023/11/08 23:20:29;;;;;;;1.83;1.50;;;11.20;99.90;;;;;;5103507;28;20241;-63
2023/11/08 23:22:57;;;;;;;1.70;1.30;;;11.20;99.90;;;;;;5101941;28;20279;-63
2023/11/08 23:25:25;;;;;;;2.17;1.60;;;11.20;99.90;;;;;;5100792;28;20261;-62
2023/11/08 23:27:52;;;;;;;1.60;1.50;;;11.20;99.90;;;;;;5093760;28;20196;-63
2023/11/08 23:30:19;;;;;;;1.10;1.10;;;11.20;99.90;;;;;;5107142;28;20280;-63
2023/11/08 23:32:46;;;;;;;1.30;1.20;;;11.20;99.90;;;;;;5094569;28;20237;-63
2023/11/08 23:35:14;;;;;;;1.40;1.30;;;11.10;99.90;;;;;;5106192;28;20188;-63
2023/11/08 23:37:42;;;;;;;1.50;1.40;;;11.20;99.90;;;;;;5103180;28;20202;-63
2023/11/08 23:40:10;;;;;;;1.27;1.20;;;11.20;99.90;;;;;;5097961;28;20200;-64
2023/11/08 23:42:38;;;;;;;1.20;1.20;;;11.20;99.90;;;;;;5097057;28;20621;-63
2023/11/08 23:45:07;;;;;;;1.93;1.30;;;11.10;99.90;;;;;;5100429;28;20273;-63
2023/11/08 23:47:34;;;;;;;1.40;1.30;;;11.10;99.90;;;;;;5103747;28;20200;-63
2023/11/08 23:50:01;;;;;;;1.50;1.40;;;11.10;99.90;;;;;;5104048;28;20214;-63
2023/11/08 23:52:28;;;;;;;1.40;1.30;;;11.10;99.90;;;;;;5097925;28;20216;-63
2023/11/08 23:54:55;;;;;;;1.63;1.53;;;11.10;99.90;;;;;;5095633;28;20310;-63
2023/11/08 23:57:22;;;;;;;1.70;1.60;;;11.00;99.90;;;;;;5103451;28;20258;-64
2023/11/08 23:59:50;;;;;;;2.60;1.90;;;10.90;99.90;;;;;;5096633;28;20537;-64
